sensor_id;sensor_type;location;lat;lon;timestamp;P1;durP1;ratioP1;P2;durP2;ratioP2
49784;SDS011;35679;38.732;-121.358;2023-07-31T00:01:51;4.80;;;4.40;;
49784;SDS011;35679;38.732;-121.358;2023-07-31T00:04:40;4.35;;;3.95;;
49784;SDS011;35679;38.732;-121.358;2023-07-31T00:07:31;5.45;;;5.05;;
49784;SDS011;35679;38.732;-121.358;2023-07-31T00:10:21;5.80;;;5.28;;
49784;SDS011;35679;38.732;-121.358;2023-07-31T00:13:12;5.32;;;5.00;;
49784;SDS011;35679;38.732;-121.358;2023-07-31T00:16:01;5.00;;;4.70;;
49784;SDS011;35679;38.732;-121.358;2023-07-31T00:18:51;5.38;;;5.07;;
49784;SDS011;35679;38.732;-121.358;2023-07-31T00:21:41;5.93;;;5.53;;
49784;SDS011;35679;38.732;-121.358;2023-07-31T00:24:30;5.30;;;5.00;;
49784;SDS011;35679;38.732;-121.358;2023-07-31T00:27:20;5.30;;;4.90;;
49784;SDS011;35679;38.732;-121.358;2023-07-31T00:30:10;5.00;;;4.60;;
49784;SDS011;35679;38.732;-121.358;2023-07-31T00:33:00;5.20;;;4.85;;
49784;SDS011;35679;38.732;-121.358;2023-07-31T00:35:49;5.32;;;4.95;;
49784;SDS011;35679;38.732;-121.358;2023-07-31T00:38:39;5.15;;;4.85;;
49784;SDS011;35679;38.732;-121.358;2023-07-31T00:41:28;5.10;;;4.80;;
49784;SDS011;35679;38.732;-121.358;2023-07-31T00:44:18;4.78;;;4.50;;
49784;SDS011;35679;38.732;-121.358;2023-07-31T00:47:07;5.00;;;4.70;;
49784;SDS011;35679;38.732;-121.358;2023-07-31T00:49:57;5.35;;;4.95;;
49784;SDS011;35679;38.732;-121.358;2023-07-31T00:52:46;4.90;;;4.60;;
49784;SDS011;35679;38.732;-121.358;2023-07-31T00:55:37;7.30;;;5.88;;
49784;SDS011;35679;38.732;-121.358;2023-07-31T00:58:27;4.38;;;4.18;;
49784;SDS011;35679;38.732;-121.358;2023-07-31T01:01:17;4.72;;;4.40;;
49784;SDS011;35679;38.732;-121.358;2023-07-31T01:04:07;4.90;;;4.60;;
49784;SDS011;35679;38.732;-121.358;2023-07-31T01:07:07;5.18;;;4.78;;
49784;SDS011;35679;38.732;-121.358;2023-07-31T01:13:09;5.10;;;4.80;;
49784;SDS011;35679;38.732;-121.358;2023-07-31T01:15:59;4.78;;;4.57;;
49784;SDS011;35679;38.732;-121.358;2023-07-31T01:18:48;5.40;;;4.90;;
49784;SDS011;35679;38.732;-121.358;2023-07-31T01:21:47;4.80;;;4.50;;
49784;SDS011;35679;38.732;-121.358;2023-07-31T01:27:59;5.15;;;4.85;;
49784;SDS011;35679;38.732;-121.358;2023-07-31T01:30:51;4.95;;;4.55;;
49784;SDS011;35679;38.732;-121.358;2023-07-31T01:36:32;4.70;;;4.40;;
49784;SDS011;35679;38.732;-121.358;2023-07-31T01:39:22;4.80;;;4.60;;
49784;SDS011;35679;38.732;-121.358;2023-07-31T01:42:12;4.93;;;4.57;;
49784;SDS011;35679;38.732;-121.358;2023-07-31T01:45:03;5.05;;;4.65;;
49784;SDS011;35679;38.732;-121.358;2023-07-31T01:47:53;5.28;;;4.88;;
49784;SDS011;35679;38.732;-121.358;2023-07-31T01:50:43;4.78;;;4.47;;
49784;SDS011;35679;38.732;-121.358;2023-07-31T01:53:32;3.35;;;3.05;;
49784;SDS011;35679;38.732;-121.358;2023-07-31T01:56:22;2.85;;;2.65;;
49784;SDS011;35679;38.732;-121.358;2023-07-31T01:59:12;2.33;;;2.13;;
49784;SDS011;35679;38.732;-121.358;2023-07-31T02:02:02;2.55;;;2.35;;
49784;SDS011;35679;38.732;-121.358;2023-07-31T02:04:51;2.50;;;2.30;;
49784;SDS011;35679;38.732;-121.358;2023-07-31T02:07:41;2.78;;;2.58;;
49784;SDS011;35679;38.732;-121.358;2023-07-31T02:10:31;2.60;;;2.40;;
49784;SDS011;35679;38.732;-121.358;2023-07-31T02:13:20;2.45;;;2.25;;
49784;SDS011;35679;38.732;-121.358;2023-07-31T02:16:11;2.67;;;2.45;;
49784;SDS011;35679;38.732;-121.358;2023-07-31T02:19:01;2.80;;;2.60;;
49784;SDS011;35679;38.732;-121.358;2023-07-31T02:21:50;3.28;;;2.97;;
49784;SDS011;35679;38.732;-121.358;2023-07-31T02:24:40;2.65;;;2.40;;
49784;SDS011;35679;38.732;-121.358;2023-07-31T02:27:32;2.63;;;2.42;;
49784;SDS011;35679;38.732;-121.358;2023-07-31T02:30:22;2.45;;;2.35;;
49784;SDS011;35679;38.732;-121.358;2023-07-31T02:33:12;2.83;;;2.63;;
49784;SDS011;35679;38.732;-121.358;2023-07-31T02:36:03;10.02;;;9.52;;
49784;SDS011;35679;38.732;-121.358;2023-07-31T02:38:52;10.35;;;9.85;;
49784;SDS011;35679;38.732;-121.358;2023-07-31T02:41:42;10.20;;;9.70;;
49784;SDS011;35679;38.732;-121.358;2023-07-31T02:44:32;9.90;;;9.50;;
49784;SDS011;35679;38.732;-121.358;2023-07-31T02:47:22;10.07;;;9.57;;
49784;SDS011;35679;38.732;-121.358;2023-07-31T02:50:11;9.95;;;9.45;;
49784;SDS011;35679;38.732;-121.358;2023-07-31T02:53:00;11.30;;;10.70;;
49784;SDS011;35679;38.732;-121.358;2023-07-31T02:55:50;10.52;;;9.93;;
49784;SDS011;35679;38.732;-121.358;2023-07-31T02:58:39;9.40;;;8.90;;
49784;SDS011;35679;38.732;-121.358;2023-07-31T03:01:28;9.05;;;8.55;;
49784;SDS011;35679;38.732;-121.358;2023-07-31T03:04:18;11.30;;;10.50;;
49784;SDS011;35679;38.732;-121.358;2023-07-31T03:07:08;10.20;;;9.70;;
49784;SDS011;35679;38.732;-121.358;2023-07-31T03:09:58;5.97;;;5.50;;
49784;SDS011;35679;38.732;-121.358;2023-07-31T03:12:48;13.15;;;12.45;;
49784;SDS011;35679;38.732;-121.358;2023-07-31T03:15:37;13.40;;;12.70;;
49784;SDS011;35679;38.732;-121.358;2023-07-31T03:18:27;8.02;;;7.63;;
49784;SDS011;35679;38.732;-121.358;2023-07-31T03:21:16;8.27;;;7.78;;
49784;SDS011;35679;38.732;-121.358;2023-07-31T03:24:06;6.95;;;6.50;;
49784;SDS011;35679;38.732;-121.358;2023-07-31T03:26:55;6.88;;;6.30;;
49784;SDS011;35679;38.732;-121.358;2023-07-31T03:29:46;8.02;;;7.63;;
49784;SDS011;35679;38.732;-121.358;2023-07-31T03:32:38;7.25;;;6.85;;
49784;SDS011;35679;38.732;-121.358;2023-07-31T03:35:27;8.73;;;8.23;;
49784;SDS011;35679;38.732;-121.358;2023-07-31T03:38:18;7.20;;;6.80;;
49784;SDS011;35679;38.732;-121.358;2023-07-31T03:41:07;7.22;;;6.82;;
49784;SDS011;35679;38.732;-121.358;2023-07-31T03:43:59;7.15;;;6.65;;
49784;SDS011;35679;38.732;-121.358;2023-07-31T03:46:48;8.00;;;7.40;;
49784;SDS011;35679;38.732;-121.358;2023-07-31T03:49:39;7.60;;;7.18;;
49784;SDS011;35679;38.732;-121.358;2023-07-31T03:52:28;7.80;;;7.40;;
49784;SDS011;35679;38.732;-121.358;2023-07-31T03:55:17;7.82;;;7.35;;
49784;SDS011;35679;38.732;-121.358;2023-07-31T03:58:07;6.05;;;5.65;;
49784;SDS011;35679;38.732;-121.358;2023-07-31T04:00:57;6.88;;;6.40;;
49784;SDS011;35679;38.732;-121.358;2023-07-31T04:03:46;7.30;;;6.90;;
49784;SDS011;35679;38.732;-121.358;2023-07-31T04:06:36;7.07;;;6.55;;
49784;SDS011;35679;38.732;-121.358;2023-07-31T04:09:26;7.25;;;6.80;;
49784;SDS011;35679;38.732;-121.358;2023-07-31T04:12:15;8.35;;;7.95;;
49784;SDS011;35679;38.732;-121.358;2023-07-31T04:15:05;8.30;;;7.80;;
49784;SDS011;35679;38.732;-121.358;2023-07-31T04:17:55;9.10;;;8.60;;
49784;SDS011;35679;38.732;-121.358;2023-07-31T04:20:44;8.70;;;8.15;;
49784;SDS011;35679;38.732;-121.358;2023-07-31T04:23:33;8.80;;;8.30;;
49784;SDS011;35679;38.732;-121.358;2023-07-31T04:26:23;8.65;;;8.07;;
49784;SDS011;35679;38.732;-121.358;2023-07-31T04:29:12;7.80;;;7.18;;
49784;SDS011;35679;38.732;-121.358;2023-07-31T04:32:02;8.02;;;7.53;;
49784;SDS011;35679;38.732;-121.358;2023-07-31T04:34:51;8.23;;;7.72;;
49784;SDS011;35679;38.732;-121.358;2023-07-31T04:37:41;9.35;;;8.65;;
49784;SDS011;35679;38.732;-121.358;2023-07-31T04:40:31;8.77;;;8.15;;
49784;SDS011;35679;38.732;-121.358;2023-07-31T04:43:20;8.63;;;8.13;;
49784;SDS011;35679;38.732;-121.358;2023-07-31T04:46:10;6.70;;;6.10;;
49784;SDS011;35679;38.732;-121.358;2023-07-31T04:49:00;6.32;;;5.82;;
49784;SDS011;35679;38.732;-121.358;2023-07-31T04:51:49;5.47;;;5.07;;
49784;SDS011;35679;38.732;-121.358;2023-07-31T04:54:39;5.45;;;5.07;;
49784;SDS011;35679;38.732;-121.358;2023-07-31T04:57:28;4.80;;;4.40;;
49784;SDS011;35679;38.732;-121.358;2023-07-31T05:00:18;6.70;;;6.22;;
49784;SDS011;35679;38.732;-121.358;2023-07-31T05:03:07;8.80;;;8.20;;
49784;SDS011;35679;38.732;-121.358;2023-07-31T05:06:00;8.02;;;7.43;;
49784;SDS011;35679;38.732;-121.358;2023-07-31T05:08:50;8.68;;;8.18;;
49784;SDS011;35679;38.732;-121.358;2023-07-31T05:11:39;8.80;;;8.20;;
49784;SDS011;35679;38.732;-121.358;2023-07-31T05:14:31;3.88;;;3.20;;
49784;SDS011;35679;38.732;-121.358;2023-07-31T05:17:21;3.13;;;2.78;;
49784;SDS011;35679;38.732;-121.358;2023-07-31T05:20:10;3.20;;;2.78;;
49784;SDS011;35679;38.732;-121.358;2023-07-31T05:23:00;4.00;;;3.40;;
49784;SDS011;35679;38.732;-121.358;2023-07-31T05:25:49;3.95;;;3.55;;
49784;SDS011;35679;38.732;-121.358;2023-07-31T05:28:39;3.95;;;3.45;;
49784;SDS011;35679;38.732;-121.358;2023-07-31T05:31:28;4.30;;;3.90;;
49784;SDS011;35679;38.732;-121.358;2023-07-31T05:34:18;4.00;;;3.70;;
49784;SDS011;35679;38.732;-121.358;2023-07-31T05:37:09;4.55;;;3.72;;
49784;SDS011;35679;38.732;-121.358;2023-07-31T05:39:59;3.63;;;3.35;;
49784;SDS011;35679;38.732;-121.358;2023-07-31T05:42:48;4.05;;;3.65;;
49784;SDS011;35679;38.732;-121.358;2023-07-31T05:45:38;5.28;;;4.15;;
49784;SDS011;35679;38.732;-121.358;2023-07-31T05:48:28;5.18;;;3.83;;
49784;SDS011;35679;38.732;-121.358;2023-07-31T05:51:18;4.00;;;3.60;;
49784;SDS011;35679;38.732;-121.358;2023-07-31T05:54:08;4.03;;;3.63;;
49784;SDS011;35679;38.732;-121.358;2023-07-31T05:56:57;4.53;;;3.60;;
49784;SDS011;35679;38.732;-121.358;2023-07-31T05:59:46;3.72;;;3.35;;
49784;SDS011;35679;38.732;-121.358;2023-07-31T06:02:36;4.18;;;3.63;;
49784;SDS011;35679;38.732;-121.358;2023-07-31T06:05:25;3.97;;;3.53;;
49784;SDS011;35679;38.732;-121.358;2023-07-31T06:08:17;3.63;;;3.33;;
49784;SDS011;35679;38.732;-121.358;2023-07-31T06:11:07;4.30;;;3.40;;
49784;SDS011;35679;38.732;-121.358;2023-07-31T06:13:57;4.75;;;3.40;;
49784;SDS011;35679;38.732;-121.358;2023-07-31T06:16:47;5.65;;;3.50;;
49784;SDS011;35679;38.732;-121.358;2023-07-31T06:19:37;3.35;;;2.83;;
49784;SDS011;35679;38.732;-121.358;2023-07-31T06:22:26;4.43;;;3.25;;
49784;SDS011;35679;38.732;-121.358;2023-07-31T06:25:15;4.65;;;3.30;;
49784;SDS011;35679;38.732;-121.358;2023-07-31T06:28:05;4.35;;;2.80;;
49784;SDS011;35679;38.732;-121.358;2023-07-31T06:30:55;3.50;;;3.20;;
49784;SDS011;35679;38.732;-121.358;2023-07-31T06:33:44;4.85;;;3.22;;
49784;SDS011;35679;38.732;-121.358;2023-07-31T06:36:34;4.15;;;3.05;;
49784;SDS011;35679;38.732;-121.358;2023-07-31T06:39:24;4.05;;;2.97;;
49784;SDS011;35679;38.732;-121.358;2023-07-31T06:42:13;4.45;;;3.20;;
49784;SDS011;35679;38.732;-121.358;2023-07-31T06:45:03;3.45;;;2.80;;
49784;SDS011;35679;38.732;-121.358;2023-07-31T06:47:53;4.55;;;3.00;;
49784;SDS011;35679;38.732;-121.358;2023-07-31T06:50:42;4.53;;;3.30;;
49784;SDS011;35679;38.732;-121.358;2023-07-31T06:53:32;4.05;;;3.20;;
49784;SDS011;35679;38.732;-121.358;2023-07-31T06:56:21;4.13;;;3.15;;
49784;SDS011;35679;38.732;-121.358;2023-07-31T06:59:11;4.10;;;3.15;;
49784;SDS011;35679;38.732;-121.358;2023-07-31T07:02:00;3.85;;;3.15;;
49784;SDS011;35679;38.732;-121.358;2023-07-31T07:04:53;3.38;;;3.08;;
49784;SDS011;35679;38.732;-121.358;2023-07-31T07:07:42;5.30;;;3.78;;
49784;SDS011;35679;38.732;-121.358;2023-07-31T07:10:32;3.97;;;3.28;;
49784;SDS011;35679;38.732;-121.358;2023-07-31T07:13:22;4.50;;;3.00;;
49784;SDS011;35679;38.732;-121.358;2023-07-31T07:16:11;4.07;;;3.50;;
49784;SDS011;35679;38.732;-121.358;2023-07-31T07:19:00;4.05;;;3.22;;
49784;SDS011;35679;38.732;-121.358;2023-07-31T07:21:51;4.90;;;3.47;;
49784;SDS011;35679;38.732;-121.358;2023-07-31T07:24:41;3.92;;;3.17;;
49784;SDS011;35679;38.732;-121.358;2023-07-31T07:27:31;4.07;;;3.22;;
49784;SDS011;35679;38.732;-121.358;2023-07-31T07:30:20;3.85;;;3.55;;
49784;SDS011;35679;38.732;-121.358;2023-07-31T07:33:10;4.25;;;3.63;;
49784;SDS011;35679;38.732;-121.358;2023-07-31T07:36:01;4.03;;;3.00;;
49784;SDS011;35679;38.732;-121.358;2023-07-31T07:38:51;5.00;;;3.33;;
49784;SDS011;35679;38.732;-121.358;2023-07-31T07:41:40;4.93;;;3.67;;
49784;SDS011;35679;38.732;-121.358;2023-07-31T07:44:29;4.53;;;3.20;;
49784;SDS011;35679;38.732;-121.358;2023-07-31T07:47:19;5.03;;;3.33;;
49784;SDS011;35679;38.732;-121.358;2023-07-31T07:50:08;4.57;;;3.78;;
49784;SDS011;35679;38.732;-121.358;2023-07-31T07:52:58;4.40;;;3.53;;
49784;SDS011;35679;38.732;-121.358;2023-07-31T07:55:47;4.45;;;3.50;;
49784;SDS011;35679;38.732;-121.358;2023-07-31T07:58:37;3.72;;;3.30;;
49784;SDS011;35679;38.732;-121.358;2023-07-31T08:01:27;5.13;;;3.40;;
49784;SDS011;35679;38.732;-121.358;2023-07-31T08:04:16;4.68;;;3.42;;
49784;SDS011;35679;38.732;-121.358;2023-07-31T08:07:05;5.32;;;3.60;;
49784;SDS011;35679;38.732;-121.358;2023-07-31T08:09:55;4.68;;;3.45;;
49784;SDS011;35679;38.732;-121.358;2023-07-31T08:12:44;3.88;;;3.38;;
49784;SDS011;35679;38.732;-121.358;2023-07-31T08:15:34;5.53;;;3.90;;
49784;SDS011;35679;38.732;-121.358;2023-07-31T08:18:23;4.28;;;3.80;;
49784;SDS011;35679;38.732;-121.358;2023-07-31T08:21:13;4.53;;;3.55;;
49784;SDS011;35679;38.732;-121.358;2023-07-31T08:24:02;3.90;;;3.38;;
49784;SDS011;35679;38.732;-121.358;2023-07-31T08:26:51;6.88;;;4.20;;
49784;SDS011;35679;38.732;-121.358;2023-07-31T08:29:41;4.72;;;3.60;;
49784;SDS011;35679;38.732;-121.358;2023-07-31T08:32:30;5.45;;;3.80;;
49784;SDS011;35679;38.732;-121.358;2023-07-31T08:35:20;4.75;;;3.83;;
49784;SDS011;35679;38.732;-121.358;2023-07-31T08:38:09;4.53;;;3.65;;
49784;SDS011;35679;38.732;-121.358;2023-07-31T08:41:02;5.28;;;3.83;;
49784;SDS011;35679;38.732;-121.358;2023-07-31T08:43:53;6.43;;;3.70;;
49784;SDS011;35679;38.732;-121.358;2023-07-31T08:46:45;4.95;;;4.18;;
49784;SDS011;35679;38.732;-121.358;2023-07-31T08:49:36;4.65;;;3.97;;
49784;SDS011;35679;38.732;-121.358;2023-07-31T08:52:27;4.90;;;3.70;;
49784;SDS011;35679;38.732;-121.358;2023-07-31T08:55:16;5.95;;;3.63;;
49784;SDS011;35679;38.732;-121.358;2023-07-31T08:58:12;4.63;;;3.35;;
49784;SDS011;35679;38.732;-121.358;2023-07-31T09:01:03;5.18;;;3.47;;
49784;SDS011;35679;38.732;-121.358;2023-07-31T09:03:54;5.17;;;3.80;;
49784;SDS011;35679;38.732;-121.358;2023-07-31T09:06:44;7.10;;;4.25;;
49784;SDS011;35679;38.732;-121.358;2023-07-31T09:09:33;4.72;;;3.58;;
49784;SDS011;35679;38.732;-121.358;2023-07-31T09:12:23;4.32;;;3.55;;
49784;SDS011;35679;38.732;-121.358;2023-07-31T09:15:14;6.28;;;3.95;;
49784;SDS011;35679;38.732;-121.358;2023-07-31T09:18:22;8.68;;;3.88;;
49784;SDS011;35679;38.732;-121.358;2023-07-31T09:21:12;5.78;;;3.65;;
49784;SDS011;35679;38.732;-121.358;2023-07-31T09:24:01;5.95;;;3.92;;
49784;SDS011;35679;38.732;-121.358;2023-07-31T09:26:51;7.47;;;4.18;;
49784;SDS011;35679;38.732;-121.358;2023-07-31T09:29:44;6.63;;;4.18;;
49784;SDS011;35679;38.732;-121.358;2023-07-31T09:32:33;7.10;;;3.88;;
49784;SDS011;35679;38.732;-121.358;2023-07-31T09:35:30;9.02;;;4.13;;
49784;SDS011;35679;38.732;-121.358;2023-07-31T09:38:21;6.47;;;4.32;;
49784;SDS011;35679;38.732;-121.358;2023-07-31T09:41:10;6.75;;;4.18;;
49784;SDS011;35679;38.732;-121.358;2023-07-31T09:44:00;5.90;;;4.03;;
49784;SDS011;35679;38.732;-121.358;2023-07-31T09:46:49;7.53;;;4.40;;
49784;SDS011;35679;38.732;-121.358;2023-07-31T09:49:38;6.93;;;4.47;;
49784;SDS011;35679;38.732;-121.358;2023-07-31T09:52:28;6.60;;;4.30;;
49784;SDS011;35679;38.732;-121.358;2023-07-31T09:55:18;6.18;;;4.10;;
49784;SDS011;35679;38.732;-121.358;2023-07-31T09:58:09;7.55;;;4.28;;
49784;SDS011;35679;38.732;-121.358;2023-07-31T10:00:59;8.00;;;4.20;;
49784;SDS011;35679;38.732;-121.358;2023-07-31T10:03:51;6.90;;;4.03;;
49784;SDS011;35679;38.732;-121.358;2023-07-31T10:06:40;7.07;;;4.30;;
49784;SDS011;35679;38.732;-121.358;2023-07-31T10:09:32;4.90;;;3.80;;
49784;SDS011;35679;38.732;-121.358;2023-07-31T10:12:23;6.15;;;4.40;;
49784;SDS011;35679;38.732;-121.358;2023-07-31T10:15:16;5.70;;;3.50;;
49784;SDS011;35679;38.732;-121.358;2023-07-31T10:18:07;6.50;;;3.50;;
49784;SDS011;35679;38.732;-121.358;2023-07-31T10:20:57;8.02;;;4.07;;
49784;SDS011;35679;38.732;-121.358;2023-07-31T10:23:47;5.75;;;3.90;;
49784;SDS011;35679;38.732;-121.358;2023-07-31T10:26:37;7.03;;;4.18;;
49784;SDS011;35679;38.732;-121.358;2023-07-31T10:29:28;6.32;;;4.10;;
49784;SDS011;35679;38.732;-121.358;2023-07-31T10:32:18;6.32;;;3.47;;
49784;SDS011;35679;38.732;-121.358;2023-07-31T10:35:09;8.55;;;4.07;;
49784;SDS011;35679;38.732;-121.358;2023-07-31T10:38:09;6.40;;;3.85;;
49784;SDS011;35679;38.732;-121.358;2023-07-31T10:41:09;5.68;;;3.88;;
49784;SDS011;35679;38.732;-121.358;2023-07-31T10:44:02;9.25;;;4.20;;
49784;SDS011;35679;38.732;-121.358;2023-07-31T10:46:54;7.63;;;3.58;;
49784;SDS011;35679;38.732;-121.358;2023-07-31T10:49:47;6.03;;;3.83;;
49784;SDS011;35679;38.732;-121.358;2023-07-31T10:52:37;5.25;;;3.92;;
49784;SDS011;35679;38.732;-121.358;2023-07-31T10:55:28;4.90;;;3.72;;
49784;SDS011;35679;38.732;-121.358;2023-07-31T10:58:21;5.35;;;3.65;;
49784;SDS011;35679;38.732;-121.358;2023-07-31T11:01:11;7.25;;;4.13;;
49784;SDS011;35679;38.732;-121.358;2023-07-31T11:04:00;7.82;;;4.05;;
49784;SDS011;35679;38.732;-121.358;2023-07-31T11:07:00;5.78;;;3.42;;
49784;SDS011;35679;38.732;-121.358;2023-07-31T11:09:53;7.95;;;3.97;;
49784;SDS011;35679;38.732;-121.358;2023-07-31T11:12:42;4.72;;;3.78;;
49784;SDS011;35679;38.732;-121.358;2023-07-31T11:15:31;6.90;;;4.22;;
49784;SDS011;35679;38.732;-121.358;2023-07-31T11:18:21;5.25;;;3.63;;
49784;SDS011;35679;38.732;-121.358;2023-07-31T11:21:18;6.65;;;4.00;;
49784;SDS011;35679;38.732;-121.358;2023-07-31T11:24:08;6.00;;;3.80;;
49784;SDS011;35679;38.732;-121.358;2023-07-31T11:30:02;6.05;;;3.65;;
49784;SDS011;35679;38.732;-121.358;2023-07-31T11:32:52;6.05;;;3.40;;
49784;SDS011;35679;38.732;-121.358;2023-07-31T11:35:43;8.57;;;4.30;;
49784;SDS011;35679;38.732;-121.358;2023-07-31T11:38:33;5.93;;;3.88;;
49784;SDS011;35679;38.732;-121.358;2023-07-31T11:41:23;5.07;;;3.83;;
49784;SDS011;35679;38.732;-121.358;2023-07-31T11:44:12;6.75;;;4.30;;
49784;SDS011;35679;38.732;-121.358;2023-07-31T11:47:13;7.60;;;4.32;;
49784;SDS011;35679;38.732;-121.358;2023-07-31T11:50:05;7.43;;;4.60;;
49784;SDS011;35679;38.732;-121.358;2023-07-31T11:52:59;8.10;;;4.85;;
49784;SDS011;35679;38.732;-121.358;2023-07-31T11:55:52;7.75;;;4.25;;
49784;SDS011;35679;38.732;-121.358;2023-07-31T11:58:42;7.35;;;4.63;;
49784;SDS011;35679;38.732;-121.358;2023-07-31T12:04:24;6.15;;;4.13;;
49784;SDS011;35679;38.732;-121.358;2023-07-31T12:07:14;7.28;;;3.85;;
49784;SDS011;35679;38.732;-121.358;2023-07-31T12:10:04;5.63;;;3.90;;
49784;SDS011;35679;38.732;-121.358;2023-07-31T12:13:04;8.27;;;4.55;;
49784;SDS011;35679;38.732;-121.358;2023-07-31T12:15:55;5.57;;;4.15;;
49784;SDS011;35679;38.732;-121.358;2023-07-31T12:18:49;5.97;;;3.90;;
49784;SDS011;35679;38.732;-121.358;2023-07-31T12:21:39;7.88;;;4.03;;
49784;SDS011;35679;38.732;-121.358;2023-07-31T12:24:28;6.28;;;4.03;;
49784;SDS011;35679;38.732;-121.358;2023-07-31T12:27:18;8.88;;;4.07;;
49784;SDS011;35679;38.732;-121.358;2023-07-31T12:30:32;10.80;;;4.30;;
49784;SDS011;35679;38.732;-121.358;2023-07-31T12:36:20;4.85;;;3.53;;
49784;SDS011;35679;38.732;-121.358;2023-07-31T12:39:12;8.85;;;4.13;;
49784;SDS011;35679;38.732;-121.358;2023-07-31T12:42:01;7.07;;;4.35;;
49784;SDS011;35679;38.732;-121.358;2023-07-31T12:44:51;6.78;;;4.22;;
49784;SDS011;35679;38.732;-121.358;2023-07-31T12:47:40;13.50;;;4.97;;
49784;SDS011;35679;38.732;-121.358;2023-07-31T12:50:30;13.07;;;4.00;;
49784;SDS011;35679;38.732;-121.358;2023-07-31T12:53:19;8.00;;;4.15;;
49784;SDS011;35679;38.732;-121.358;2023-07-31T12:56:09;9.27;;;4.70;;
49784;SDS011;35679;38.732;-121.358;2023-07-31T12:58:58;10.18;;;4.07;;
49784;SDS011;35679;38.732;-121.358;2023-07-31T13:01:47;10.90;;;4.22;;
49784;SDS011;35679;38.732;-121.358;2023-07-31T13:04:37;8.88;;;4.22;;
49784;SDS011;35679;38.732;-121.358;2023-07-31T13:07:26;7.65;;;4.10;;
49784;SDS011;35679;38.732;-121.358;2023-07-31T13:10:16;9.23;;;4.50;;
49784;SDS011;35679;38.732;-121.358;2023-07-31T13:13:05;12.85;;;4.25;;
49784;SDS011;35679;38.732;-121.358;2023-07-31T13:15:55;14.93;;;4.80;;
49784;SDS011;35679;38.732;-121.358;2023-07-31T13:18:44;8.75;;;4.30;;
49784;SDS011;35679;38.732;-121.358;2023-07-31T13:21:33;11.13;;;4.65;;
49784;SDS011;35679;38.732;-121.358;2023-07-31T13:24:24;7.65;;;4.35;;
49784;SDS011;35679;38.732;-121.358;2023-07-31T13:27:14;6.45;;;4.25;;
49784;SDS011;35679;38.732;-121.358;2023-07-31T13:30:09;8.40;;;4.50;;
49784;SDS011;35679;38.732;-121.358;2023-07-31T13:32:58;8.98;;;4.30;;
49784;SDS011;35679;38.732;-121.358;2023-07-31T13:35:47;9.27;;;4.43;;
49784;SDS011;35679;38.732;-121.358;2023-07-31T13:38:38;6.72;;;4.18;;
49784;SDS011;35679;38.732;-121.358;2023-07-31T13:41:27;8.65;;;4.43;;
49784;SDS011;35679;38.732;-121.358;2023-07-31T13:44:17;6.35;;;4.68;;
49784;SDS011;35679;38.732;-121.358;2023-07-31T13:47:06;8.95;;;4.72;;
49784;SDS011;35679;38.732;-121.358;2023-07-31T13:49:57;8.45;;;4.72;;
49784;SDS011;35679;38.732;-121.358;2023-07-31T13:52:46;9.90;;;5.57;;
49784;SDS011;35679;38.732;-121.358;2023-07-31T13:55:35;11.07;;;4.95;;
49784;SDS011;35679;38.732;-121.358;2023-07-31T13:58:25;6.53;;;4.78;;
49784;SDS011;35679;38.732;-121.358;2023-07-31T14:01:14;8.27;;;4.32;;
49784;SDS011;35679;38.732;-121.358;2023-07-31T14:04:04;11.75;;;4.70;;
49784;SDS011;35679;38.732;-121.358;2023-07-31T14:06:53;6.63;;;4.95;;
49784;SDS011;35679;38.732;-121.358;2023-07-31T14:09:45;12.82;;;5.10;;
49784;SDS011;35679;38.732;-121.358;2023-07-31T14:12:34;8.35;;;4.80;;
49784;SDS011;35679;38.732;-121.358;2023-07-31T14:15:29;12.65;;;4.93;;
49784;SDS011;35679;38.732;-121.358;2023-07-31T14:18:20;14.52;;;5.03;;
49784;SDS011;35679;38.732;-121.358;2023-07-31T14:21:10;6.32;;;4.90;;
49784;SDS011;35679;38.732;-121.358;2023-07-31T14:24:00;7.93;;;4.75;;
49784;SDS011;35679;38.732;-121.358;2023-07-31T14:26:49;12.70;;;5.47;;
49784;SDS011;35679;38.732;-121.358;2023-07-31T14:29:39;6.53;;;4.50;;
49784;SDS011;35679;38.732;-121.358;2023-07-31T14:32:28;9.60;;;4.65;;
49784;SDS011;35679;38.732;-121.358;2023-07-31T14:35:18;10.50;;;5.63;;
49784;SDS011;35679;38.732;-121.358;2023-07-31T14:38:07;7.20;;;4.88;;
49784;SDS011;35679;38.732;-121.358;2023-07-31T14:40:57;8.48;;;4.78;;
49784;SDS011;35679;38.732;-121.358;2023-07-31T14:43:46;8.57;;;4.55;;
49784;SDS011;35679;38.732;-121.358;2023-07-31T14:46:37;63.92;;;7.80;;
49784;SDS011;35679;38.732;-121.358;2023-07-31T14:49:26;8.80;;;4.68;;
49784;SDS011;35679;38.732;-121.358;2023-07-31T14:52:16;13.10;;;4.70;;
49784;SDS011;35679;38.732;-121.358;2023-07-31T14:55:06;9.50;;;4.93;;
49784;SDS011;35679;38.732;-121.358;2023-07-31T14:57:57;7.15;;;6.28;;
49784;SDS011;35679;38.732;-121.358;2023-07-31T15:00:47;9.88;;;6.30;;
49784;SDS011;35679;38.732;-121.358;2023-07-31T15:03:37;7.80;;;6.00;;
49784;SDS011;35679;38.732;-121.358;2023-07-31T15:06:26;11.15;;;7.47;;
49784;SDS011;35679;38.732;-121.358;2023-07-31T15:09:16;12.65;;;8.55;;
49784;SDS011;35679;38.732;-121.358;2023-07-31T15:12:05;8.48;;;7.47;;
49784;SDS011;35679;38.732;-121.358;2023-07-31T15:14:55;10.23;;;8.27;;
49784;SDS011;35679;38.732;-121.358;2023-07-31T15:17:45;9.60;;;7.45;;
49784;SDS011;35679;38.732;-121.358;2023-07-31T15:20:34;9.45;;;7.53;;
49784;SDS011;35679;38.732;-121.358;2023-07-31T15:23:24;8.93;;;7.88;;
49784;SDS011;35679;38.732;-121.358;2023-07-31T15:26:14;13.23;;;7.25;;
49784;SDS011;35679;38.732;-121.358;2023-07-31T15:29:05;9.23;;;7.25;;
49784;SDS011;35679;38.732;-121.358;2023-07-31T15:31:59;8.85;;;6.90;;
49784;SDS011;35679;38.732;-121.358;2023-07-31T15:34:50;9.75;;;6.95;;
49784;SDS011;35679;38.732;-121.358;2023-07-31T15:37:40;7.75;;;6.88;;
49784;SDS011;35679;38.732;-121.358;2023-07-31T15:40:29;8.93;;;6.45;;
49784;SDS011;35679;38.732;-121.358;2023-07-31T15:43:19;8.80;;;6.75;;
49784;SDS011;35679;38.732;-121.358;2023-07-31T15:46:10;8.13;;;6.75;;
49784;SDS011;35679;38.732;-121.358;2023-07-31T15:49:00;7.88;;;5.03;;
49784;SDS011;35679;38.732;-121.358;2023-07-31T15:51:50;7.15;;;4.97;;
49784;SDS011;35679;38.732;-121.358;2023-07-31T15:54:40;5.43;;;4.40;;
49784;SDS011;35679;38.732;-121.358;2023-07-31T15:57:29;6.90;;;5.10;;
49784;SDS011;35679;38.732;-121.358;2023-07-31T16:00:19;8.93;;;5.18;;
49784;SDS011;35679;38.732;-121.358;2023-07-31T16:03:09;7.20;;;4.82;;
49784;SDS011;35679;38.732;-121.358;2023-07-31T16:05:58;5.43;;;4.07;;
49784;SDS011;35679;38.732;-121.358;2023-07-31T16:08:48;7.60;;;4.65;;
49784;SDS011;35679;38.732;-121.358;2023-07-31T16:11:37;7.00;;;4.70;;
49784;SDS011;35679;38.732;-121.358;2023-07-31T16:14:27;6.75;;;4.45;;
49784;SDS011;35679;38.732;-121.358;2023-07-31T16:17:16;5.93;;;4.45;;
49784;SDS011;35679;38.732;-121.358;2023-07-31T16:20:05;7.22;;;4.95;;
49784;SDS011;35679;38.732;-121.358;2023-07-31T16:22:55;7.10;;;5.05;;
49784;SDS011;35679;38.732;-121.358;2023-07-31T16:25:45;9.00;;;5.18;;
49784;SDS011;35679;38.732;-121.358;2023-07-31T16:28:34;7.70;;;4.78;;
49784;SDS011;35679;38.732;-121.358;2023-07-31T16:31:24;7.15;;;5.28;;
49784;SDS011;35679;38.732;-121.358;2023-07-31T16:34:21;9.35;;;4.95;;
49784;SDS011;35679;38.732;-121.358;2023-07-31T16:37:13;7.35;;;5.00;;
49784;SDS011;35679;38.732;-121.358;2023-07-31T16:40:02;6.90;;;5.20;;